This is the latest recevied weather packets stored in our database for station/object DL7MAP-13. If no packets are shown the sender has not sent any weather packets the latest 10 day(s).
| Time | Temp. | Humidity | Pressure | Rain* | Wind** | Luminosity | Snow |
|---|---|---|---|---|---|---|---|
| 1777615087 | 15° C | 58% | 1024.5 hPa | - | - | - | - |
| 1777614187 | 13.89° C | 60% | 1024.4 hPa | - | - | - | - |
| 1777613287 | 14.44° C | 61% | 1024.5 hPa | - | - | - | - |
| 1777612387 | 13.33° C | 67% | 1024.5 hPa | - | - | - | - |
| 1777611487 | 11.67° C | 72% | 1024.6 hPa | - | - | - | - |
| 1777610587 | 10.56° C | 78% | 1024.7 hPa | - | - | - | - |
| 1777609687 | 8.33° C | 84% | 1024.6 hPa | - | - | - | - |
| 1777608787 | 6.11° C | 84% | 1024.3 hPa | - | - | - | - |
| 1777607887 | 5° C | 85% | 1024.2 hPa | - | - | - | - |
| 1777606987 | 5° C | 85% | 1024.2 hPa | - | - | - | - |
| 1777606087 | 5.56° C | 85% | 1024.3 hPa | - | - | - | - |
| 1777605187 | 5.56° C | 85% | 1024.2 hPa | - | - | - | - |
| 1777604287 | 5° C | 85% | 1024.1 hPa | - | - | - | - |
| 1777603386 | 4.44° C | 84% | 1024.1 hPa | - | - | - | - |
| 1777602487 | 4.44° C | 84% | 1024.2 hPa | - | - | - | - |
| 1777601587 | 5° C | 83% | 1024.2 hPa | - | - | - | - |
| 1777600686 | 5.56° C | 82% | 1024.2 hPa | - | - | - | - |
| 1777599787 | 5.56° C | 82% | 1024 hPa | - | - | - | - |
| 1777598887 | 6.11° C | 81% | 1024 hPa | - | - | - | - |
| 1777597987 | 6.11° C | 80% | 1023.9 hPa | - | - | - | - |
| 1777597087 | 6.67° C | 79% | 1024 hPa | - | - | - | - |
| 1777596187 | 6.67° C | 79% | 1024 hPa | - | - | - | - |
| 1777595286 | 6.67° C | 79% | 1023.9 hPa | - | - | - | - |
| 1777594387 | 6.67° C | 77% | 1024 hPa | - | - | - | - |
| 1777593486 | 7.22° C | 76% | 1023.9 hPa | - | - | - | - |
* Rain since midnight (hover to see other rain measurements)
** Current wind speed in m/s (hover to see current wind gust speed)